createdAt,value
2023-05-22T00:00:56.338Z,14.43
2023-05-22T00:01:58.629Z,14.41
2023-05-22T00:03:00.868Z,14.38
2023-05-22T00:04:03.836Z,14.37
2023-05-22T00:05:06.965Z,14.39
2023-05-22T00:06:10.267Z,14.47
2023-05-22T00:07:12.295Z,14.50
2023-05-22T00:08:14.516Z,14.54
2023-05-22T00:09:16.774Z,14.60
2023-05-22T00:10:19.111Z,14.65
2023-05-22T00:11:21.316Z,14.72
2023-05-22T00:12:23.453Z,14.75
2023-05-22T00:13:25.536Z,14.80
2023-05-22T00:14:27.802Z,14.79
2023-05-22T00:15:29.818Z,14.82
2023-05-22T00:16:32.341Z,14.87
2023-05-22T00:17:34.617Z,14.88
2023-05-22T00:18:36.807Z,14.86
2023-05-22T00:19:38.925Z,14.85
2023-05-22T00:20:42.403Z,14.82
2023-05-22T00:21:44.779Z,14.85
2023-05-22T00:22:48.964Z,14.89
2023-05-22T00:23:51.080Z,14.89
2023-05-22T00:24:53.203Z,14.95
2023-05-22T00:25:55.374Z,14.91
2023-05-22T00:26:57.870Z,14.91
2023-05-22T00:27:59.928Z,14.90
2023-05-22T00:29:02.100Z,14.92
2023-05-22T00:30:04.446Z,14.93
2023-05-22T00:31:09.436Z,14.95
2023-05-22T00:32:11.777Z,14.96
2023-05-22T00:33:13.908Z,14.94
2023-05-22T00:34:15.961Z,14.87
2023-05-22T00:35:18.136Z,14.78
2023-05-22T00:36:20.261Z,14.75
2023-05-22T00:37:22.502Z,14.67
2023-05-22T00:38:33.379Z,14.65
2023-05-22T00:39:35.940Z,14.61
2023-05-22T00:40:38.315Z,14.60
2023-05-22T00:41:40.745Z,14.65
2023-05-22T00:42:46.091Z,14.61
2023-05-22T00:43:48.283Z,14.57
2023-05-22T00:44:50.372Z,14.52
2023-05-22T00:45:54.280Z,14.55
2023-05-22T00:47:35.103Z,14.53
2023-05-22T00:48:37.764Z,14.44
2023-05-22T00:49:40.057Z,14.39
2023-05-22T00:50:43.979Z,14.31
2023-05-22T00:51:45.762Z,14.40
2023-05-22T00:52:47.922Z,14.37
2023-05-22T00:53:51.402Z,14.38
2023-05-22T00:54:54.325Z,14.45
2023-05-22T00:55:57.581Z,14.35
2023-05-22T00:57:01.616Z,14.34
2023-05-22T00:58:09.244Z,14.31
2023-05-22T00:59:11.614Z,14.25
2023-05-22T01:00:15.386Z,14.21
2023-05-22T01:01:18.042Z,14.16
2023-05-22T01:02:20.765Z,14.14
2023-05-22T01:03:27.162Z,14.11
2023-05-22T01:04:32.920Z,14.09
2023-05-22T01:05:34.968Z,14.08
2023-05-22T01:06:37.551Z,14.07
2023-05-22T01:07:39.690Z,14.03
2023-05-22T01:08:43.184Z,14.02
2023-05-22T01:09:45.224Z,14.00
2023-05-22T01:10:53.075Z,13.98
2023-05-22T01:12:07.508Z,13.99
2023-05-22T01:13:27.470Z,13.98
2023-05-22T01:14:53.591Z,14.00
2023-05-22T01:16:13.415Z,14.00
2023-05-22T01:17:16.522Z,14.03
2023-05-22T01:18:32.717Z,14.06
2023-05-22T01:19:54.241Z,14.15
2023-05-22T01:21:22.355Z,14.21
2023-05-22T01:22:32.383Z,14.20
2023-05-22T01:24:06.723Z,14.21
2023-05-22T01:25:33.432Z,14.16
2023-05-22T01:26:41.684Z,14.13
2023-05-22T01:28:01.838Z,14.16
2023-05-22T01:29:56.206Z,14.23
2023-05-22T01:31:11.600Z,14.28
2023-05-22T01:32:20.182Z,14.29
2023-05-22T01:33:26.430Z,14.28
2023-05-22T01:34:31.932Z,14.30
2023-05-22T01:35:37.351Z,14.30
2023-05-22T01:36:41.963Z,14.34
2023-05-22T01:37:44.784Z,14.35
2023-05-22T01:38:47.628Z,14.34
2023-05-22T01:39:51.796Z,14.35
2023-05-22T01:40:55.419Z,14.37
2023-05-22T01:41:58.109Z,14.38
2023-05-22T01:43:01.146Z,14.44
2023-05-22T01:44:03.509Z,14.48
2023-05-22T01:45:06.385Z,14.53
2023-05-22T01:46:08.885Z,14.64
2023-05-22T01:47:11.004Z,14.72
2023-05-22T01:48:13.030Z,14.77
2023-05-22T01:49:16.403Z,14.87
2023-05-22T01:50:18.893Z,14.94
2023-05-22T01:51:39.134Z,15.00
2023-05-22T01:53:06.808Z,15.08
2023-05-22T01:54:24.451Z,15.19
2023-05-22T01:55:40.529Z,15.23
2023-05-22T01:56:55.207Z,15.33
2023-05-22T01:58:26.746Z,15.38
2023-05-22T01:59:49.840Z,15.35
2023-05-22T02:00:54.893Z,15.25
2023-05-22T02:02:01.133Z,15.19
2023-05-22T02:03:09.131Z,15.19
2023-05-22T02:04:13.802Z,15.21
2023-05-22T02:05:20.523Z,15.27
2023-05-22T02:06:24.255Z,15.34
2023-05-22T02:07:27.887Z,15.41
2023-05-22T02:08:31.359Z,15.45
2023-05-22T02:09:35.158Z,15.47
2023-05-22T02:10:38.292Z,15.60
2023-05-22T02:11:41.920Z,15.60
2023-05-22T02:12:45.074Z,15.66
2023-05-22T02:13:47.535Z,15.83
2023-05-22T02:14:50.560Z,16.11
2023-05-22T02:15:53.148Z,16.54
2023-05-22T02:16:56.962Z,16.98
2023-05-22T02:18:00.529Z,17.45
2023-05-22T02:19:08.812Z,17.86
2023-05-22T02:20:15.525Z,18.35
2023-05-22T02:21:18.111Z,18.74
2023-05-22T02:22:20.233Z,19.05
2023-05-22T02:23:22.628Z,19.33
2023-05-22T02:24:24.863Z,19.55
2023-05-22T02:25:27.106Z,19.83
2023-05-22T02:26:29.340Z,20.09
2023-05-22T02:27:31.625Z,20.30
2023-05-22T02:28:33.625Z,20.44
2023-05-22T02:29:36.012Z,20.65
2023-05-22T02:30:38.072Z,20.80
2023-05-22T02:31:40.687Z,20.91
2023-05-22T02:32:43.270Z,21.01
2023-05-22T02:33:45.488Z,21.12
2023-05-22T02:34:48.494Z,21.27
2023-05-22T02:35:50.682Z,21.39
2023-05-22T02:36:52.783Z,21.57
2023-05-22T02:37:54.973Z,21.73
2023-05-22T02:38:56.887Z,21.92
2023-05-22T02:39:59.394Z,22.04
2023-05-22T02:41:01.525Z,22.14
2023-05-22T02:42:03.934Z,22.15
2023-05-22T02:43:06.308Z,22.16
2023-05-22T02:44:08.445Z,22.20
2023-05-22T02:45:10.708Z,22.24
2023-05-22T02:46:12.874Z,22.26
2023-05-22T02:47:15.024Z,22.34
2023-05-22T02:48:17.149Z,22.45
2023-05-22T02:49:19.324Z,22.51
2023-05-22T02:50:21.475Z,22.54
2023-05-22T02:51:23.547Z,22.58
2023-05-22T02:52:25.688Z,22.62
2023-05-22T02:53:28.322Z,22.65
2023-05-22T02:54:30.537Z,22.69
2023-05-22T02:55:32.494Z,22.77
2023-05-22T02:56:34.654Z,22.90
2023-05-22T02:57:36.634Z,22.99
2023-05-22T02:58:41.980Z,23.11
2023-05-22T02:59:44.539Z,23.27
2023-05-22T03:00:46.662Z,23.34
2023-05-22T03:01:48.788Z,23.43
2023-05-22T03:02:51.110Z,23.45
2023-05-22T03:03:55.137Z,23.53
2023-05-22T03:04:59.219Z,23.59
2023-05-22T03:06:02.004Z,23.75
2023-05-22T03:07:04.473Z,23.77
2023-05-22T03:08:06.907Z,23.95
2023-05-22T03:09:09.153Z,24.00
2023-05-22T03:10:11.637Z,24.23
2023-05-22T03:11:13.710Z,24.27
2023-05-22T03:12:15.714Z,24.44
2023-05-22T03:13:17.798Z,24.56
2023-05-22T03:14:20.043Z,24.64
2023-05-22T03:15:22.175Z,24.60
2023-05-22T03:16:25.179Z,24.67
2023-05-22T03:17:27.346Z,24.62
2023-05-22T03:18:29.390Z,24.69
2023-05-22T03:19:31.747Z,24.72
2023-05-22T03:20:34.202Z,24.70
2023-05-22T03:21:36.947Z,24.83
2023-05-22T03:22:39.077Z,24.91
2023-05-22T03:23:41.290Z,24.91
2023-05-22T03:24:43.229Z,24.99
2023-05-22T03:25:45.300Z,24.98
2023-05-22T03:26:47.492Z,25.09
2023-05-22T03:27:49.604Z,25.07
2023-05-22T03:28:51.711Z,25.27
2023-05-22T03:29:54.010Z,25.32
2023-05-22T03:30:55.969Z,25.26
2023-05-22T03:31:58.413Z,25.04
2023-05-22T03:33:00.673Z,24.88
2023-05-22T03:34:03.280Z,24.76
2023-05-22T03:35:06.342Z,24.83
2023-05-22T03:36:09.996Z,24.85
2023-05-22T03:37:11.926Z,25.38
2023-05-22T03:38:14.014Z,25.08
2023-05-22T03:39:16.270Z,24.90
2023-05-22T03:40:18.336Z,24.90
2023-05-22T03:41:21.297Z,24.80
2023-05-22T03:42:23.349Z,24.66
2023-05-22T03:43:25.448Z,24.52
2023-05-22T03:44:27.848Z,24.47
2023-05-22T03:45:30.225Z,24.46
2023-05-22T03:46:32.368Z,24.47
2023-05-22T03:47:34.580Z,24.44
2023-05-22T03:48:36.905Z,24.51
2023-05-22T03:49:39.140Z,24.56
2023-05-22T03:50:41.503Z,24.60
2023-05-22T03:51:43.963Z,24.73
2023-05-22T03:52:46.495Z,24.85
2023-05-22T03:53:48.740Z,25.08
2023-05-22T03:54:50.750Z,25.14
2023-05-22T03:55:53.448Z,25.17
2023-05-22T03:56:56.353Z,25.28
2023-05-22T03:57:58.571Z,25.38
2023-05-22T03:59:00.828Z,25.39
2023-05-22T04:00:10.097Z,25.37
2023-05-22T04:01:13.937Z,25.32
2023-05-22T04:02:16.979Z,25.43
2023-05-22T04:03:19.931Z,25.50
2023-05-22T04:04:22.285Z,25.67
2023-05-22T04:05:24.797Z,25.56
2023-05-22T04:06:27.213Z,25.50
2023-05-22T04:07:29.238Z,25.53
2023-05-22T04:08:31.608Z,25.42
2023-05-22T04:09:35.703Z,25.56
2023-05-22T04:10:39.102Z,25.49
2023-05-22T04:11:42.497Z,25.40
2023-05-22T04:12:44.844Z,25.26
2023-05-22T04:13:50.118Z,25.29
2023-05-22T04:14:52.216Z,25.15
2023-05-22T04:15:54.334Z,25.01
2023-05-22T04:16:56.759Z,25.08
2023-05-22T04:17:58.766Z,25.11
2023-05-22T04:19:04.665Z,24.93
2023-05-22T04:20:07.892Z,24.94
2023-05-22T04:21:10.442Z,24.83
2023-05-22T04:22:12.499Z,24.97
2023-05-22T04:23:14.855Z,25.16
2023-05-22T04:24:16.924Z,25.21
2023-05-22T04:25:18.993Z,25.21
2023-05-22T04:26:21.078Z,25.11
2023-05-22T04:27:23.191Z,25.16
2023-05-22T04:28:26.866Z,25.10
2023-05-22T04:29:29.619Z,25.14
2023-05-22T04:30:37.825Z,25.25
2023-05-22T04:31:40.362Z,25.39
2023-05-22T04:32:43.686Z,25.34
2023-05-22T04:33:48.604Z,25.37
2023-05-22T04:34:53.621Z,25.44
2023-05-22T04:35:55.681Z,25.20
2023-05-22T04:36:58.424Z,25.41
2023-05-22T04:38:03.864Z,25.19
2023-05-22T04:39:05.845Z,24.98
2023-05-22T04:40:10.271Z,24.98
2023-05-22T04:41:13.687Z,25.08
2023-05-22T04:42:16.219Z,25.12
2023-05-22T04:43:18.915Z,25.06
2023-05-22T04:44:23.155Z,25.02
2023-05-22T04:45:25.513Z,25.21
2023-05-22T04:46:28.929Z,25.23
2023-05-22T04:47:32.101Z,25.24
2023-05-22T04:48:37.106Z,25.26
2023-05-22T04:49:39.464Z,25.40
2023-05-22T04:50:41.855Z,25.37
2023-05-22T04:51:44.067Z,25.36
2023-05-22T04:52:47.306Z,25.27
2023-05-22T04:53:49.998Z,25.40
2023-05-22T04:54:52.696Z,25.51
2023-05-22T04:55:54.999Z,25.49
2023-05-22T04:56:57.243Z,25.65
2023-05-22T04:57:59.939Z,25.66
2023-05-22T04:59:02.146Z,25.80
2023-05-22T05:00:05.564Z,25.90
2023-05-22T05:01:09.686Z,25.93
2023-05-22T05:02:12.095Z,26.44
2023-05-22T05:03:14.135Z,26.26
2023-05-22T05:04:17.882Z,26.43
2023-05-22T05:05:20.063Z,26.52
2023-05-22T05:06:22.199Z,26.54
2023-05-22T05:07:25.378Z,26.45
2023-05-22T05:08:27.485Z,26.54
2023-05-22T05:09:29.851Z,26.50
2023-05-22T05:10:31.918Z,26.49
2023-05-22T05:11:34.084Z,26.50
2023-05-22T05:12:36.277Z,26.61
2023-05-22T05:13:38.501Z,26.79
2023-05-22T05:14:40.588Z,26.96
2023-05-22T05:15:42.616Z,26.97
2023-05-22T05:16:44.732Z,27.01
2023-05-22T05:17:47.044Z,26.86
2023-05-22T05:18:49.159Z,26.77
2023-05-22T05:19:51.334Z,26.79
2023-05-22T05:20:53.941Z,26.82
2023-05-22T05:21:55.990Z,26.95
2023-05-22T05:22:58.192Z,27.16
2023-05-22T05:24:00.601Z,27.32
2023-05-22T05:25:04.216Z,27.31
2023-05-22T05:26:06.063Z,27.73
2023-05-22T05:27:08.068Z,27.51
2023-05-22T05:28:13.211Z,27.43
2023-05-22T05:29:15.258Z,27.38
2023-05-22T05:30:20.561Z,27.35
2023-05-22T05:31:23.079Z,27.34
2023-05-22T05:32:25.364Z,27.26
2023-05-22T05:33:28.029Z,27.34
2023-05-22T05:34:30.288Z,27.42
2023-05-22T05:35:32.752Z,27.51
2023-05-22T05:36:35.010Z,27.59
2023-05-22T05:37:37.078Z,27.56
2023-05-22T05:38:39.268Z,27.56
2023-05-22T05:39:41.408Z,27.36
2023-05-22T05:40:45.194Z,27.34
2023-05-22T05:41:47.214Z,27.37
2023-05-22T05:42:49.457Z,27.46
2023-05-22T05:43:57.552Z,27.64
2023-05-22T05:44:59.756Z,27.55
2023-05-22T05:46:02.000Z,27.44
2023-05-22T05:47:04.364Z,27.61
2023-05-22T05:48:06.968Z,27.44
2023-05-22T05:49:12.355Z,27.29
2023-05-22T05:50:15.945Z,27.18
2023-05-22T05:51:18.145Z,27.16
2023-05-22T05:52:20.244Z,27.36
2023-05-22T05:53:22.920Z,27.31
2023-05-22T05:54:26.585Z,27.36
2023-05-22T05:55:28.917Z,27.41
2023-05-22T05:56:31.192Z,27.45
2023-05-22T05:57:33.423Z,27.52
2023-05-22T05:58:35.410Z,27.65
2023-05-22T05:59:38.130Z,27.66
2023-05-22T06:00:42.529Z,27.57
2023-05-22T06:01:49.275Z,27.31
2023-05-22T06:02:51.451Z,27.23
2023-05-22T06:03:53.838Z,27.16
2023-05-22T06:04:56.244Z,27.31
2023-05-22T06:05:59.507Z,27.31
2023-05-22T06:07:02.053Z,27.34
2023-05-22T06:08:06.340Z,27.21
2023-05-22T06:09:10.373Z,27.35
2023-05-22T06:10:13.185Z,27.28
2023-05-22T06:11:15.216Z,27.29
2023-05-22T06:12:17.309Z,27.37
2023-05-22T06:13:19.472Z,27.53
2023-05-22T06:14:21.613Z,27.51
2023-05-22T06:15:23.689Z,27.56
2023-05-22T06:16:26.600Z,27.62
2023-05-22T06:17:28.644Z,27.61
2023-05-22T06:18:31.052Z,27.46
2023-05-22T06:19:33.098Z,27.39
2023-05-22T06:20:35.461Z,27.51
2023-05-22T06:21:37.509Z,27.49
2023-05-22T06:22:39.644Z,27.60
2023-05-22T06:23:41.812Z,27.74
2023-05-22T06:24:43.893Z,27.91
2023-05-22T06:25:46.050Z,27.95
2023-05-22T06:26:48.140Z,27.91
2023-05-22T06:27:50.192Z,27.92
2023-05-22T06:28:52.350Z,27.88
2023-05-22T06:29:56.342Z,27.99
2023-05-22T06:30:58.571Z,27.94
2023-05-22T06:32:00.986Z,27.91
2023-05-22T06:33:04.383Z,27.77
2023-05-22T06:34:06.703Z,27.66
2023-05-22T06:35:10.423Z,27.60
2023-05-22T06:36:12.482Z,27.38
2023-05-22T06:37:14.577Z,27.34
2023-05-22T06:38:16.728Z,27.16
2023-05-22T06:39:19.755Z,27.04
2023-05-22T06:40:22.265Z,26.86
2023-05-22T06:41:24.301Z,26.72
2023-05-22T06:42:26.330Z,26.74
2023-05-22T06:43:28.404Z,26.75
2023-05-22T06:44:30.643Z,26.78
2023-05-22T06:45:32.773Z,26.74
2023-05-22T06:46:35.040Z,26.83
2023-05-22T06:47:37.247Z,26.62
2023-05-22T06:48:39.198Z,26.50
2023-05-22T06:49:41.503Z,26.40
2023-05-22T06:50:43.564Z,26.28
2023-05-22T06:51:46.796Z,26.27
2023-05-22T06:52:49.457Z,26.20
2023-05-22T06:53:51.718Z,26.16
2023-05-22T06:54:54.239Z,26.05
2023-05-22T06:55:57.034Z,25.95
2023-05-22T06:56:59.768Z,26.00
2023-05-22T06:58:02.204Z,26.06
2023-05-22T06:59:06.238Z,26.12
2023-05-22T07:00:12.102Z,26.06
2023-05-22T07:01:14.381Z,26.02
2023-05-22T07:02:16.649Z,26.08
2023-05-22T07:03:18.832Z,26.18
2023-05-22T07:04:20.988Z,26.25
2023-05-22T07:05:23.036Z,26.32
2023-05-22T07:06:25.122Z,26.41
2023-05-22T07:07:27.175Z,26.39
2023-05-22T07:08:30.551Z,26.42
2023-05-22T07:09:32.803Z,26.48
2023-05-22T07:10:35.018Z,26.28
2023-05-22T07:11:38.081Z,26.23
2023-05-22T07:12:42.445Z,26.25
2023-05-22T07:13:44.578Z,26.23
2023-05-22T07:14:46.710Z,26.19
2023-05-22T07:15:48.741Z,26.30
2023-05-22T07:16:51.486Z,26.45
2023-05-22T07:17:53.761Z,26.45
2023-05-22T07:18:55.871Z,26.40
2023-05-22T07:19:58.438Z,26.42
2023-05-22T07:21:00.920Z,26.54
2023-05-22T07:22:03.029Z,26.57
2023-05-22T07:23:05.025Z,26.65
2023-05-22T07:24:10.068Z,26.70
2023-05-22T07:25:12.245Z,26.76
2023-05-22T07:26:14.343Z,26.77
2023-05-22T07:27:16.489Z,26.74
2023-05-22T07:28:18.722Z,26.69
2023-05-22T07:29:22.457Z,26.75
2023-05-22T07:30:25.312Z,26.76
2023-05-22T07:31:27.418Z,26.71
2023-05-22T07:32:29.702Z,26.57
2023-05-22T07:33:31.748Z,26.51
2023-05-22T07:34:34.559Z,26.53
2023-05-22T07:35:36.549Z,26.61
2023-05-22T07:36:38.895Z,26.72
2023-05-22T07:37:41.523Z,26.67
2023-05-22T07:38:43.754Z,26.69
2023-05-22T07:39:47.000Z,26.73
2023-05-22T07:40:49.152Z,26.79
2023-05-22T07:41:51.633Z,26.81
2023-05-22T07:42:54.462Z,26.92
2023-05-22T07:43:56.801Z,26.83
2023-05-22T07:44:58.858Z,26.74
2023-05-22T07:46:00.945Z,26.75
2023-05-22T07:47:03.641Z,26.72
2023-05-22T07:48:06.066Z,26.74
2023-05-22T07:49:08.395Z,26.77
2023-05-22T07:50:10.546Z,26.73
2023-05-22T07:51:13.857Z,26.78
2023-05-22T07:52:16.563Z,26.78
2023-05-22T07:53:18.854Z,26.81
2023-05-22T07:54:20.819Z,26.89
2023-05-22T07:55:23.156Z,27.02
2023-05-22T07:56:25.967Z,27.01
2023-05-22T07:57:29.979Z,26.93
2023-05-22T07:58:34.155Z,26.87
2023-05-22T07:59:37.888Z,26.84
2023-05-22T08:00:39.882Z,26.89
2023-05-22T08:01:42.310Z,26.91
2023-05-22T08:02:45.142Z,26.76
2023-05-22T08:03:47.469Z,26.73
2023-05-22T08:04:50.689Z,26.62
2023-05-22T08:05:55.595Z,26.57
2023-05-22T08:06:57.572Z,26.57
2023-05-22T08:07:59.724Z,26.47
2023-05-22T08:09:02.610Z,26.44
2023-05-22T08:10:08.533Z,26.34
2023-05-22T08:11:10.730Z,26.28
2023-05-22T08:12:13.252Z,26.36
2023-05-22T08:13:16.953Z,26.37
2023-05-22T08:14:21.765Z,26.44
2023-05-22T08:15:23.829Z,26.40
2023-05-22T08:16:26.198Z,26.33
2023-05-22T08:17:28.273Z,26.42
2023-05-22T08:18:30.597Z,26.51
2023-05-22T08:19:33.462Z,26.63
2023-05-22T08:20:35.722Z,26.71
2023-05-22T08:21:37.905Z,26.81
2023-05-22T08:22:40.629Z,26.90
2023-05-22T08:23:42.632Z,26.93
2023-05-22T08:24:44.900Z,26.96
2023-05-22T08:25:46.897Z,26.93
2023-05-22T08:26:49.070Z,26.91
2023-05-22T08:27:51.105Z,26.93
2023-05-22T08:28:53.156Z,26.96
2023-05-22T08:29:55.254Z,27.05
2023-05-22T08:30:57.358Z,27.08
2023-05-22T08:31:59.340Z,27.14
2023-05-22T08:33:01.729Z,27.17
2023-05-22T08:34:04.910Z,27.20
2023-05-22T08:35:07.529Z,27.24
2023-05-22T08:36:09.537Z,27.23
2023-05-22T08:37:12.797Z,27.19
2023-05-22T08:38:15.145Z,27.11
2023-05-22T08:39:20.239Z,26.91
2023-05-22T08:40:22.823Z,26.75
2023-05-22T08:41:25.032Z,26.68
2023-05-22T08:42:27.226Z,26.66
2023-05-22T08:43:29.747Z,26.71
2023-05-22T08:44:31.759Z,26.84
2023-05-22T08:45:34.764Z,26.93
2023-05-22T08:46:41.791Z,27.05
2023-05-22T08:47:44.967Z,27.12
2023-05-22T08:48:48.141Z,27.19
2023-05-22T08:49:52.167Z,27.32
2023-05-22T08:51:01.409Z,27.34
2023-05-22T08:52:11.626Z,27.41
2023-05-22T08:53:15.842Z,27.40
2023-05-22T08:54:21.945Z,27.38
2023-05-22T08:55:24.108Z,27.36
2023-05-22T08:56:28.668Z,27.31
2023-05-22T08:57:33.369Z,27.35
2023-05-22T08:58:37.687Z,27.45
2023-05-22T08:59:41.492Z,27.60
2023-05-22T09:00:44.562Z,27.76
2023-05-22T09:01:47.515Z,27.90
2023-05-22T09:02:50.103Z,27.95
2023-05-22T09:03:52.410Z,28.03
2023-05-22T09:04:54.467Z,28.06
2023-05-22T09:05:56.412Z,28.08
2023-05-22T09:07:00.202Z,28.20
2023-05-22T09:08:16.066Z,28.38
2023-05-22T09:09:21.626Z,28.49
2023-05-22T09:10:23.883Z,28.43
2023-05-22T09:11:26.461Z,28.46
2023-05-22T09:12:28.522Z,28.50
2023-05-22T09:13:31.997Z,28.55
2023-05-22T09:14:42.171Z,28.47
2023-05-22T09:15:44.577Z,28.43
2023-05-22T09:16:52.018Z,28.52
2023-05-22T09:17:54.088Z,28.55
2023-05-22T09:18:57.636Z,28.64
2023-05-22T09:20:01.326Z,28.65
2023-05-22T09:21:08.965Z,28.67
2023-05-22T09:22:17.728Z,28.37
2023-05-22T09:23:20.518Z,28.29
2023-05-22T09:24:22.755Z,28.08
2023-05-22T09:25:26.617Z,27.97
2023-05-22T09:26:29.689Z,28.02
2023-05-22T09:27:32.162Z,28.09
2023-05-22T09:28:36.274Z,28.18
2023-05-22T09:29:51.688Z,28.32
2023-05-22T09:30:54.897Z,28.28
2023-05-22T09:31:59.324Z,28.27
2023-05-22T09:33:01.561Z,28.11
2023-05-22T09:34:04.974Z,28.04
2023-05-22T09:35:26.130Z,27.97
2023-05-22T09:36:33.450Z,28.07
2023-05-22T09:37:36.663Z,28.09
2023-05-22T09:38:39.603Z,28.09
2023-05-22T09:39:44.025Z,28.18
2023-05-22T09:41:04.607Z,28.22
2023-05-22T09:42:09.495Z,28.29
2023-05-22T09:43:12.756Z,28.24
2023-05-22T09:44:16.536Z,28.18
2023-05-22T09:45:26.738Z,28.23
2023-05-22T09:46:48.172Z,28.29
2023-05-22T09:47:51.242Z,28.42
2023-05-22T09:48:53.904Z,28.42
2023-05-22T09:50:15.731Z,28.44
2023-05-22T09:51:22.282Z,28.38
2023-05-22T09:52:24.764Z,28.34
2023-05-22T09:53:31.222Z,28.32
2023-05-22T09:54:34.985Z,28.29
2023-05-22T09:55:37.329Z,28.34
2023-05-22T09:56:42.003Z,28.21
2023-05-22T09:57:45.221Z,28.23
2023-05-22T09:58:48.055Z,28.25
2023-05-22T09:59:55.148Z,28.38
2023-05-22T10:01:17.188Z,28.31
2023-05-22T10:02:38.390Z,28.30
2023-05-22T10:03:43.428Z,28.28
2023-05-22T10:05:26.034Z,28.17
2023-05-22T10:06:46.782Z,27.97
2023-05-22T10:07:50.407Z,27.77
2023-05-22T10:09:02.760Z,27.71
2023-05-22T10:10:11.615Z,27.69
2023-05-22T10:11:14.697Z,27.69
2023-05-22T10:12:21.328Z,27.69
2023-05-22T10:13:25.559Z,27.79
2023-05-22T10:14:29.036Z,27.77
2023-05-22T10:15:32.990Z,27.84
2023-05-22T10:16:39.895Z,27.91
2023-05-22T10:17:42.233Z,27.98
2023-05-22T10:19:21.529Z,28.15
2023-05-22T10:20:25.566Z,28.18
2023-05-22T10:21:30.169Z,28.18
2023-05-22T10:22:51.073Z,28.27
2023-05-22T10:24:13.527Z,28.24
2023-05-22T10:25:16.000Z,28.38
2023-05-22T10:26:19.242Z,28.20
2023-05-22T10:27:21.328Z,28.14
2023-05-22T10:28:35.783Z,28.13
2023-05-22T10:30:03.671Z,28.05
2023-05-22T10:31:14.952Z,28.05
2023-05-22T10:32:35.962Z,28.23
2023-05-22T10:33:43.609Z,28.27
2023-05-22T10:35:20.977Z,28.41
2023-05-22T10:36:31.851Z,28.37
2023-05-22T10:37:36.621Z,28.19
2023-05-22T10:38:57.380Z,28.19
2023-05-22T10:40:08.386Z,28.20
2023-05-22T10:41:11.342Z,28.12
2023-05-22T10:42:33.026Z,28.06
2023-05-22T10:43:41.577Z,28.17
2023-05-22T10:44:43.849Z,28.19
2023-05-22T10:45:47.364Z,28.23
2023-05-22T10:46:50.474Z,28.48
2023-05-22T10:48:03.727Z,28.48
2023-05-22T10:49:05.974Z,28.42
2023-05-22T10:50:30.079Z,28.57
2023-05-22T10:51:34.450Z,28.62
2023-05-22T10:52:37.172Z,28.59
2023-05-22T10:53:41.079Z,28.57
2023-05-22T10:54:44.749Z,28.43
2023-05-22T10:56:10.288Z,28.35
2023-05-22T10:57:55.504Z,28.44
2023-05-22T11:01:17.464Z,28.85
2023-05-22T11:02:29.607Z,28.70
2023-05-22T11:04:00.264Z,28.70
2023-05-22T11:05:31.397Z,28.81
2023-05-22T11:06:45.767Z,28.77
2023-05-22T11:08:29.451Z,28.83
2023-05-22T11:09:47.807Z,28.72
2023-05-22T11:10:54.663Z,28.71
2023-05-22T11:12:28.951Z,28.66
2023-05-22T11:13:31.544Z,28.50
2023-05-22T11:14:33.827Z,28.44
2023-05-22T11:15:54.184Z,28.31
2023-05-22T11:17:00.489Z,28.39
2023-05-22T11:18:22.220Z,28.48
2023-05-22T11:19:24.476Z,28.56
2023-05-22T11:20:26.812Z,28.61
2023-05-22T11:21:48.237Z,28.54
2023-05-22T11:22:59.504Z,28.43
2023-05-22T11:24:02.009Z,28.26
2023-05-22T11:25:07.433Z,27.96
2023-05-22T11:26:37.932Z,27.91
2023-05-22T11:27:41.512Z,27.81
2023-05-22T11:29:02.282Z,27.88
2023-05-22T11:30:04.908Z,27.91
2023-05-22T11:31:09.097Z,27.97
2023-05-22T11:32:15.456Z,27.96
2023-05-22T11:33:18.640Z,27.97
2023-05-22T11:34:21.461Z,27.97
2023-05-22T11:35:23.757Z,27.99
2023-05-22T11:36:28.656Z,28.03
2023-05-22T11:37:33.942Z,28.08
2023-05-22T11:38:36.239Z,28.18
2023-05-22T11:39:38.488Z,28.16
2023-05-22T11:40:40.690Z,28.14
2023-05-22T11:41:43.286Z,28.14
2023-05-22T11:42:45.427Z,28.14
2023-05-22T11:43:47.556Z,28.15
2023-05-22T11:44:49.706Z,28.14
2023-05-22T11:45:51.837Z,28.09
2023-05-22T11:46:54.608Z,28.02
2023-05-22T11:47:57.329Z,28.00
2023-05-22T11:48:59.398Z,28.03
2023-05-22T11:50:02.191Z,28.04
2023-05-22T11:51:04.708Z,28.04
2023-05-22T11:52:06.992Z,28.10
2023-05-22T11:53:09.084Z,28.18
2023-05-22T11:54:11.412Z,28.22
2023-05-22T11:55:13.430Z,28.29
2023-05-22T11:56:15.772Z,28.34
2023-05-22T11:57:17.700Z,28.39
2023-05-22T11:58:28.319Z,28.49
2023-05-22T11:59:30.254Z,28.38
2023-05-22T12:00:32.750Z,28.27
2023-05-22T12:01:36.529Z,28.26
2023-05-22T12:02:39.415Z,28.25
2023-05-22T12:03:42.243Z,28.21
2023-05-22T12:04:44.542Z,28.07
2023-05-22T12:05:47.338Z,27.94
2023-05-22T12:06:49.755Z,27.86
2023-05-22T12:07:52.059Z,27.92
2023-05-22T12:08:54.787Z,27.89
2023-05-22T12:09:57.942Z,27.91
2023-05-22T12:11:00.333Z,27.94
2023-05-22T12:12:02.427Z,28.04
2023-05-22T12:13:04.686Z,28.12
2023-05-22T12:14:06.690Z,28.19
2023-05-22T12:15:09.655Z,28.20
2023-05-22T12:16:25.315Z,28.27
2023-05-22T12:17:29.120Z,28.23
2023-05-22T12:18:39.621Z,28.43
2023-05-22T12:19:42.717Z,28.34
2023-05-22T12:20:45.012Z,28.30
2023-05-22T12:21:49.424Z,28.24
2023-05-22T12:22:51.525Z,28.25
2023-05-22T12:23:55.290Z,28.28
2023-05-22T12:24:57.434Z,28.30
2023-05-22T12:26:01.066Z,28.32
2023-05-22T12:27:03.231Z,28.37
2023-05-22T12:28:08.488Z,28.37
2023-05-22T12:29:10.631Z,28.33
2023-05-22T12:30:14.232Z,28.03
2023-05-22T12:31:25.605Z,27.87
2023-05-22T12:32:30.501Z,27.82
2023-05-22T12:33:32.692Z,27.79
2023-05-22T12:34:36.165Z,27.76
2023-05-22T12:35:39.058Z,27.71
2023-05-22T12:36:43.479Z,27.69
2023-05-22T12:37:52.538Z,27.66
2023-05-22T12:38:58.457Z,27.68
2023-05-22T12:40:04.253Z,27.64
2023-05-22T12:41:06.638Z,27.63
2023-05-22T12:42:08.846Z,27.53
2023-05-22T12:43:10.876Z,27.52
2023-05-22T12:44:15.142Z,27.62
2023-05-22T12:45:18.270Z,27.60
2023-05-22T12:46:21.274Z,27.52
2023-05-22T12:47:24.714Z,27.56
2023-05-22T12:48:26.795Z,27.69
2023-05-22T12:49:28.728Z,27.60
2023-05-22T12:50:31.797Z,27.59
2023-05-22T12:51:35.089Z,27.58
2023-05-22T12:52:37.351Z,27.46
2023-05-22T12:53:39.299Z,27.45
2023-05-22T12:54:41.684Z,27.45
2023-05-22T12:55:43.848Z,27.55
2023-05-22T12:56:46.197Z,27.67
2023-05-22T12:57:48.246Z,27.70
2023-05-22T12:58:50.566Z,27.69
2023-05-22T12:59:52.533Z,27.71
2023-05-22T13:00:54.933Z,27.69
2023-05-22T13:02:02.351Z,27.71
2023-05-22T13:03:06.161Z,27.70
2023-05-22T13:04:08.058Z,27.84
2023-05-22T13:05:10.214Z,27.69
2023-05-22T13:06:12.650Z,27.63
2023-05-22T13:07:14.666Z,27.52
2023-05-22T13:08:16.905Z,27.35
2023-05-22T13:09:20.234Z,27.25
2023-05-22T13:10:22.473Z,27.23
2023-05-22T13:11:26.670Z,27.25
2023-05-22T13:12:28.818Z,27.22
2023-05-22T13:13:31.142Z,27.27
2023-05-22T13:14:33.486Z,27.32
2023-05-22T13:15:36.388Z,27.38
2023-05-22T13:16:38.484Z,27.44
2023-05-22T13:17:40.724Z,27.56
2023-05-22T13:18:42.865Z,27.61
2023-05-22T13:19:44.912Z,27.62
2023-05-22T13:20:47.213Z,27.62
2023-05-22T13:21:49.489Z,27.54
2023-05-22T13:22:51.623Z,27.53
2023-05-22T13:23:53.674Z,27.50
2023-05-22T13:24:56.009Z,27.50
2023-05-22T13:25:57.965Z,27.44
2023-05-22T13:27:00.009Z,27.24
2023-05-22T13:28:02.385Z,27.08
2023-05-22T13:29:04.738Z,27.06
2023-05-22T13:30:07.483Z,27.00
2023-05-22T13:31:09.672Z,26.97
2023-05-22T13:32:13.748Z,27.03
2023-05-22T13:33:16.103Z,27.09
2023-05-22T13:34:18.208Z,27.17
2023-05-22T13:35:20.896Z,27.21
2023-05-22T13:36:22.934Z,27.26
2023-05-22T13:37:25.408Z,27.23
2023-05-22T13:38:27.405Z,27.16
2023-05-22T13:39:29.557Z,27.09
2023-05-22T13:40:31.858Z,26.96
2023-05-22T13:41:34.025Z,26.94
2023-05-22T13:42:36.818Z,26.88
2023-05-22T13:43:39.009Z,26.85
2023-05-22T13:44:41.130Z,26.78
2023-05-22T13:45:43.450Z,26.80
2023-05-22T13:46:45.463Z,26.75
2023-05-22T13:47:47.753Z,26.77
2023-05-22T13:48:49.907Z,26.80
2023-05-22T13:49:52.571Z,26.79
2023-05-22T13:50:54.557Z,26.80
2023-05-22T13:51:56.700Z,26.81
2023-05-22T13:52:58.718Z,26.89
2023-05-22T13:54:00.950Z,26.90
2023-05-22T13:55:02.985Z,26.93